Time;durP1;ratioP1;P1;durP2;ratioP2;P2;SDS_P1;SDS_P2;PMS_P1;PMS_P2;Temp;Humidity;BMP_temperature;BMP_pressure;BME280_temperature;BME280_humidity;BME280_pressure;Samples;Min_cycle;Max_cycle;Signal;HPM_P1;HPM_P2
2021/09/28 00:01:45;;;;;;;3.35;2.53;;;17.20;99.90;;;;;;5063887;28;20035;-72
2021/09/28 00:04:11;;;;;;;1.63;1.50;;;17.20;99.90;;;;;;5060220;28;20024;-72
2021/09/28 00:06:36;;;;;;;2.42;2.22;;;17.10;99.90;;;;;;5051000;28;20020;-72
2021/09/28 00:09:03;;;;;;;2.30;2.10;;;17.10;99.90;;;;;;5052117;28;20028;-72
2021/09/28 00:11:28;;;;;;;2.38;2.17;;;17.10;99.90;;;;;;5047299;28;20115;-69
2021/09/28 00:13:54;;;;;;;2.20;1.90;;;17.10;99.90;;;;;;5054963;28;20534;-69
2021/09/28 00:16:19;;;;;;;3.17;2.00;;;17.10;99.90;;;;;;5061519;28;20445;-70
2021/09/28 00:18:45;;;;;;;0.88;0.85;;;17.10;99.90;;;;;;5060490;28;20068;-72
2021/09/28 00:21:11;;;;;;;1.48;1.38;;;17.00;99.90;;;;;;5061711;28;20647;-69
2021/09/28 00:23:36;;;;;;;2.58;2.38;;;17.00;99.90;;;;;;5061382;28;20020;-69
2021/09/28 00:26:02;;;;;;;2.58;2.00;;;17.00;99.90;;;;;;5057528;28;20032;-69
2021/09/28 00:28:28;;;;;;;1.48;1.33;;;17.00;99.90;;;;;;5060921;28;20035;-69
2021/09/28 00:30:55;;;;;;;1.73;1.63;;;17.00;99.90;;;;;;5052822;28;20513;-69
2021/09/28 00:33:20;;;;;;;1.85;1.60;;;17.00;99.90;;;;;;5049875;28;20037;-69
2021/09/28 00:35:46;;;;;;;1.63;1.52;;;17.00;99.90;;;;;;5059412;28;20066;-69
2021/09/28 00:38:11;;;;;;;1.48;1.38;;;17.00;99.90;;;;;;5058769;28;20084;-69
2021/09/28 00:40:37;;;;;;;3.38;2.15;;;17.00;99.90;;;;;;5056967;28;20086;-69
2021/09/28 00:43:02;;;;;;;1.25;1.15;;;17.00;99.90;;;;;;5058068;28;20040;-69
2021/09/28 00:45:28;;;;;;;1.80;1.63;;;17.00;99.90;;;;;;5060999;28;20013;-70
2021/09/28 00:47:53;;;;;;;1.63;1.50;;;17.00;99.90;;;;;;5062178;28;20060;-70
2021/09/28 00:50:19;;;;;;;2.58;1.63;;;17.00;99.90;;;;;;5057382;28;20044;-71
2021/09/28 00:52:46;;;;;;;2.00;1.75;;;17.00;99.90;;;;;;5067449;28;20033;-70
2021/09/28 00:55:14;;;;;;;1.63;1.52;;;17.00;99.90;;;;;;5066452;28;20036;-70
2021/09/28 00:57:40;;;;;;;1.40;1.30;;;17.10;99.90;;;;;;5064410;28;20064;-70
2021/09/28 01:00:07;;;;;;;2.33;2.13;;;17.10;99.90;;;;;;5063996;28;20636;-70
2021/09/28 01:02:33;;;;;;;2.55;2.38;;;17.10;99.90;;;;;;5065444;28;20494;-71
2021/09/28 01:05:02;;;;;;;12.52;2.13;;;17.20;99.90;;;;;;5062005;28;20085;-70
2021/09/28 01:07:28;;;;;;;1.52;1.42;;;17.20;99.90;;;;;;5061430;28;20021;-70
2021/09/28 01:09:54;;;;;;;2.17;1.52;;;17.20;99.90;;;;;;5062614;28;20031;-71
2021/09/28 01:12:20;;;;;;;1.55;1.45;;;17.20;99.90;;;;;;5063193;28;20078;-70
2021/09/28 01:14:45;;;;;;;2.25;1.52;;;17.30;99.90;;;;;;5054662;28;20020;-70
2021/09/28 01:17:15;;;;;;;1.33;1.23;;;17.20;99.90;;;;;;5062658;28;20028;-70
2021/09/28 01:19:41;;;;;;;1.73;1.02;;;17.20;99.90;;;;;;5065706;28;20056;-70
2021/09/28 01:22:07;;;;;;;1.67;1.58;;;17.20;99.90;;;;;;5059155;28;21146;-70
2021/09/28 01:24:33;;;;;;;1.60;1.50;;;17.20;99.90;;;;;;5054578;28;20540;-70
2021/09/28 01:26:58;;;;;;;1.60;1.50;;;17.30;99.90;;;;;;5059493;28;20032;-70
2021/09/28 01:29:24;;;;;;;2.13;2.03;;;17.20;99.90;;;;;;5056067;28;20506;-69
2021/09/28 01:31:49;;;;;;;1.20;1.10;;;17.30;99.90;;;;;;5058022;28;20423;-69
2021/09/28 01:34:16;;;;;;;4.15;1.73;;;17.30;99.90;;;;;;5047585;28;20025;-70
2021/09/28 01:36:42;;;;;;;2.05;1.75;;;17.30;99.90;;;;;;5065028;28;20027;-69
2021/09/28 01:39:08;;;;;;;1.33;1.23;;;17.40;99.90;;;;;;5060222;28;20028;-70
2021/09/28 01:41:33;;;;;;;1.10;1.10;;;17.40;99.90;;;;;;5060406;28;20236;-69
2021/09/28 01:44:13;;;;;;;2.60;2.00;;;17.40;99.90;;;;;;5061673;28;20639;-69
2021/09/28 01:46:40;;;;;;;1.58;1.48;;;17.40;99.90;;;;;;5065571;28;20500;-70
2021/09/28 01:49:07;;;;;;;1.73;1.63;;;17.40;99.90;;;;;;5059207;28;20438;-69
2021/09/28 01:51:33;;;;;;;1.98;1.80;;;17.40;99.90;;;;;;5062545;28;20121;-69
2021/09/28 01:53:58;;;;;;;2.88;2.28;;;17.40;99.90;;;;;;5062251;28;20107;-69
2021/09/28 01:56:28;;;;;;;1.20;1.10;;;17.40;99.90;;;;;;5055809;28;20024;-70
2021/09/28 01:58:55;;;;;;;1.17;0.88;;;17.40;99.90;;;;;;5057493;28;20055;-69
2021/09/28 02:01:21;;;;;;;2.88;1.95;;;17.50;99.90;;;;;;5056057;28;20441;-69
2021/09/28 02:03:47;;;;;;;5.28;2.53;;;17.50;99.90;;;;;;5065150;28;20024;-69
2021/09/28 02:06:14;;;;;;;8.52;2.08;;;17.50;99.90;;;;;;5057738;28;20021;-70
2021/09/28 02:08:40;;;;;;;2.28;1.63;;;17.50;99.90;;;;;;5059684;28;20521;-69
2021/09/28 02:11:05;;;;;;;2.50;1.50;;;17.50;99.90;;;;;;5061789;28;20064;-69
2021/09/28 02:13:31;;;;;;;2.30;2.10;;;17.50;99.90;;;;;;5064151;28;20024;-69
2021/09/28 02:15:56;;;;;;;1.83;1.73;;;17.60;99.90;;;;;;5062305;28;20020;-70
2021/09/28 02:18:22;;;;;;;1.80;1.70;;;17.50;99.90;;;;;;5059661;28;20789;-69
2021/09/28 02:20:47;;;;;;;1.35;1.25;;;17.50;99.90;;;;;;5061640;28;20035;-69
2021/09/28 02:23:22;;;;;;;4.90;3.08;;;17.50;99.90;;;;;;5051861;28;20528;-69
2021/09/28 02:25:47;;;;;;;2.72;2.17;;;17.60;99.90;;;;;;5059663;28;20028;-69
2021/09/28 02:28:13;;;;;;;3.42;2.55;;;17.60;99.90;;;;;;5057604;28;20732;-69
2021/09/28 02:30:39;;;;;;;1.58;1.42;;;17.60;99.90;;;;;;5056070;28;20040;-69
2021/09/28 02:33:05;;;;;;;2.15;1.92;;;17.60;99.90;;;;;;5060894;28;20063;-69
2021/09/28 02:35:31;;;;;;;2.28;2.08;;;17.60;99.90;;;;;;5059611;28;20024;-69
2021/09/28 02:37:56;;;;;;;1.73;1.60;;;17.60;99.90;;;;;;5058562;28;20097;-69
2021/09/28 02:40:23;;;;;;;2.42;1.67;;;17.60;99.90;;;;;;5053590;28;20127;-69
2021/09/28 02:42:49;;;;;;;1.52;1.42;;;17.60;99.90;;;;;;5063857;28;20029;-69
2021/09/28 02:45:15;;;;;;;2.38;1.88;;;17.60;99.90;;;;;;5062399;28;20439;-69
2021/09/28 02:47:40;;;;;;;1.67;1.40;;;17.60;99.90;;;;;;5065843;28;20143;-68
2021/09/28 02:50:06;;;;;;;1.80;1.70;;;17.60;99.90;;;;;;5059733;28;20024;-69
2021/09/28 02:52:31;;;;;;;2.35;1.67;;;17.60;99.90;;;;;;5061766;28;20013;-69
2021/09/28 02:54:57;;;;;;;1.95;1.65;;;17.60;99.90;;;;;;5061539;28;20540;-69
2021/09/28 02:57:22;;;;;;;1.23;1.17;;;17.60;99.90;;;;;;5048415;28;20024;-69
2021/09/28 02:59:48;;;;;;;1.63;0.88;;;17.60;99.90;;;;;;5060270;28;20471;-69
2021/09/28 03:02:13;;;;;;;2.20;1.15;;;17.60;99.90;;;;;;5051878;28;20036;-69
2021/09/28 03:04:39;;;;;;;1.95;1.77;;;17.60;99.90;;;;;;5061948;28;20016;-69
2021/09/28 03:07:04;;;;;;;2.95;1.48;;;17.60;99.90;;;;;;5057200;28;20395;-69
2021/09/28 03:09:30;;;;;;;1.73;1.42;;;17.60;99.90;;;;;;5057539;28;20021;-69
2021/09/28 03:11:56;;;;;;;1.88;1.63;;;17.60;99.90;;;;;;5061455;28;20039;-69
2021/09/28 03:14:23;;;;;;;1.23;1.13;;;17.60;99.90;;;;;;5056621;28;20041;-69
2021/09/28 03:16:49;;;;;;;1.73;1.60;;;17.60;99.90;;;;;;5062490;28;20056;-69
2021/09/28 03:19:15;;;;;;;1.75;1.48;;;17.60;99.90;;;;;;5064197;28;20089;-69
2021/09/28 03:21:42;;;;;;;1.42;1.38;;;17.60;99.90;;;;;;5053421;28;20119;-69
2021/09/28 03:24:08;;;;;;;1.33;1.23;;;17.50;99.90;;;;;;5058751;28;20020;-69
2021/09/28 03:26:33;;;;;;;1.13;1.05;;;17.50;99.90;;;;;;5062015;28;20024;-69
2021/09/28 03:28:59;;;;;;;1.00;0.95;;;17.50;99.90;;;;;;5062965;28;20111;-69
2021/09/28 03:31:24;;;;;;;2.05;1.60;;;17.50;99.90;;;;;;5057796;28;20032;-69
2021/09/28 03:33:50;;;;;;;1.08;1.08;;;17.50;99.90;;;;;;5056457;28;20028;-69
2021/09/28 03:36:16;;;;;;;2.20;1.85;;;17.50;99.90;;;;;;5051757;28;20470;-69
2021/09/28 03:38:41;;;;;;;1.10;1.10;;;17.40;99.90;;;;;;5059259;28;20029;-69
2021/09/28 03:41:06;;;;;;;0.95;0.95;;;17.40;99.90;;;;;;5052742;28;20987;-69
2021/09/28 03:43:32;;;;;;;0.80;0.80;;;17.40;99.90;;;;;;5058457;28;20100;-69
2021/09/28 03:45:57;;;;;;;1.48;1.38;;;17.40;99.90;;;;;;5058688;28;20028;-69
2021/09/28 03:48:23;;;;;;;1.25;1.20;;;17.40;99.90;;;;;;5056421;28;20025;-69
2021/09/28 03:50:49;;;;;;;0.70;0.70;;;17.40;99.90;;;;;;5060003;28;20032;-69
2021/09/28 03:53:15;;;;;;;0.73;0.73;;;17.40;99.90;;;;;;5061579;28;20035;-69
2021/09/28 03:55:40;;;;;;;0.70;0.70;;;17.40;99.90;;;;;;5063033;28;20024;-69
2021/09/28 03:58:07;;;;;;;1.15;1.05;;;17.40;99.90;;;;;;5061963;28;20076;-69
2021/09/28 04:00:33;;;;;;;0.43;0.43;;;17.40;99.90;;;;;;5060939;28;20044;-69
2021/09/28 04:03:02;;;;;;;0.95;0.95;;;17.40;99.90;;;;;;5057533;28;20033;-69
2021/09/28 04:05:28;;;;;;;1.15;1.08;;;17.30;99.90;;;;;;5057469;28;20074;-69
2021/09/28 04:07:53;;;;;;;0.38;0.38;;;17.30;99.90;;;;;;5056901;28;20422;-69
2021/09/28 04:10:19;;;;;;;1.75;1.05;;;17.30;99.90;;;;;;5056947;28;20068;-69
2021/09/28 04:12:44;;;;;;;1.20;1.10;;;17.30;99.90;;;;;;5060930;28;20071;-69
2021/09/28 04:15:10;;;;;;;1.13;1.02;;;17.20;99.90;;;;;;5056936;28;20093;-69
2021/09/28 04:17:36;;;;;;;1.05;0.60;;;17.20;99.90;;;;;;5058472;28;20023;-69
2021/09/28 04:20:01;;;;;;;0.45;0.45;;;17.20;99.90;;;;;;5059080;28;20036;-69
2021/09/28 04:22:27;;;;;;;0.28;0.22;;;17.20;99.90;;;;;;5061474;28;20112;-69
2021/09/28 04:24:54;;;;;;;0.60;0.60;;;17.20;99.90;;;;;;5057174;28;20033;-69
2021/09/28 04:27:20;;;;;;;0.70;0.70;;;17.20;99.90;;;;;;5053913;28;20040;-69
2021/09/28 04:29:46;;;;;;;1.17;0.73;;;17.10;99.90;;;;;;5054727;28;20020;-69
2021/09/28 04:32:12;;;;;;;0.65;0.63;;;17.10;99.90;;;;;;5045410;28;20052;-69
2021/09/28 04:34:38;;;;;;;0.45;0.45;;;17.00;99.90;;;;;;5058153;28;20034;-68
2021/09/28 04:37:05;;;;;;;0.73;0.73;;;17.00;99.90;;;;;;5056740;28;20639;-68
2021/09/28 04:39:31;;;;;;;0.77;0.77;;;16.90;99.90;;;;;;5046951;28;20384;-68
2021/09/28 04:41:57;;;;;;;1.40;1.30;;;16.90;99.90;;;;;;5052429;28;20056;-68
2021/09/28 04:44:22;;;;;;;0.68;0.45;;;16.90;99.90;;;;;;5054651;28;20063;-67
2021/09/28 04:46:48;;;;;;;1.70;0.85;;;16.90;99.90;;;;;;5058256;28;20483;-68
2021/09/28 04:49:13;;;;;;;0.40;0.40;;;16.80;99.90;;;;;;5059047;28;20501;-68
2021/09/28 04:51:39;;;;;;;1.23;1.13;;;16.80;99.90;;;;;;5062866;28;20052;-68
2021/09/28 04:54:04;;;;;;;0.68;0.65;;;16.80;99.90;;;;;;5059534;28;20268;-69
2021/09/28 04:56:30;;;;;;;0.45;0.45;;;16.80;99.90;;;;;;5055288;28;20029;-71
2021/09/28 04:58:55;;;;;;;0.35;0.35;;;16.80;99.90;;;;;;5057939;28;20036;-72
2021/09/28 05:01:21;;;;;;;0.73;0.63;;;16.80;99.90;;;;;;5058720;28;20039;-72
2021/09/28 05:03:46;;;;;;;0.10;0.10;;;16.70;99.90;;;;;;5057798;28;20428;-72
2021/09/28 05:06:12;;;;;;;0.45;0.43;;;16.80;99.90;;;;;;5052803;28;20028;-72
2021/09/28 05:08:39;;;;;;;2.72;0.47;;;16.70;99.90;;;;;;5057585;28;20060;-72
2021/09/28 05:11:08;;;;;;;0.80;0.40;;;16.70;99.90;;;;;;5051686;28;20503;-72
2021/09/28 05:13:33;;;;;;;0.55;0.55;;;16.70;99.90;;;;;;5052647;28;20025;-73
2021/09/28 05:15:59;;;;;;;0.30;0.30;;;16.70;99.90;;;;;;5055459;28;20544;-72
2021/09/28 05:18:28;;;;;;;1.20;0.40;;;16.70;99.90;;;;;;5055631;28;20036;-68
2021/09/28 05:20:54;;;;;;;0.20;0.20;;;16.70;99.90;;;;;;5050792;28;20040;-69
2021/09/28 05:23:19;;;;;;;0.20;0.20;;;16.60;99.90;;;;;;5054813;28;20075;-69
2021/09/28 05:25:45;;;;;;;0.30;0.30;;;16.60;99.90;;;;;;5054347;28;20025;-68
2021/09/28 05:28:10;;;;;;;0.20;0.20;;;16.60;99.90;;;;;;5048381;28;20020;-69
2021/09/28 05:30:37;;;;;;;0.10;0.10;;;16.60;99.90;;;;;;5063266;28;20028;-67
2021/09/28 05:33:02;;;;;;;0.10;0.10;;;16.60;99.90;;;;;;5052088;28;20052;-68
2021/09/28 05:35:28;;;;;;;0.43;0.30;;;16.60;99.90;;;;;;5066448;28;20040;-68
2021/09/28 05:37:54;;;;;;;0.00;0.00;;;16.60;99.90;;;;;;5062589;28;20498;-69
2021/09/28 05:40:19;;;;;;;0.15;0.13;;;16.60;99.90;;;;;;5052548;28;20032;-71
2021/09/28 05:42:45;;;;;;;0.10;0.10;;;16.60;99.90;;;;;;5060981;28;20024;-71
2021/09/28 05:45:11;;;;;;;0.20;0.20;;;16.60;99.90;;;;;;5059479;28;20392;-71
2021/09/28 05:47:37;;;;;;;0.13;0.13;;;16.60;99.90;;;;;;5060283;28;20029;-71
2021/09/28 05:50:06;;;;;;;0.30;0.30;;;16.60;99.90;;;;;;5064760;28;20483;-71
2021/09/28 05:52:32;;;;;;;0.17;0.17;;;16.60;99.90;;;;;;5056691;28;20048;-71
2021/09/28 05:55:12;;;;;;;0.38;0.38;;;16.60;99.90;;;;;;5062950;28;20048;-71
2021/09/28 05:57:37;;;;;;;0.38;0.38;;;16.60;99.90;;;;;;5057074;28;20165;-70
2021/09/28 06:00:04;;;;;;;0.10;0.10;;;16.70;99.90;;;;;;5062713;28;20489;-70
2021/09/28 06:02:29;;;;;;;0.10;0.10;;;16.70;99.90;;;;;;5056554;28;20031;-70
2021/09/28 06:04:55;;;;;;;0.57;0.57;;;16.80;99.90;;;;;;5057124;28;20028;-71
2021/09/28 06:07:21;;;;;;;0.10;0.10;;;16.80;99.90;;;;;;5063550;28;20086;-71
2021/09/28 06:09:48;;;;;;;0.63;0.50;;;16.80;99.90;;;;;;5059564;28;20066;-70
2021/09/28 06:12:14;;;;;;;0.40;0.22;;;16.80;99.90;;;;;;5062810;28;20487;-71
2021/09/28 06:14:41;;;;;;;0.00;0.00;;;16.80;99.90;;;;;;5064148;28;20041;-71
2021/09/28 06:17:07;;;;;;;0.28;0.20;;;16.80;99.90;;;;;;5055373;28;20024;-71
2021/09/28 06:19:35;;;;;;;1.80;0.82;;;16.80;99.90;;;;;;5053496;28;20470;-70
2021/09/28 06:22:01;;;;;;;0.03;0.03;;;16.80;99.90;;;;;;5053836;28;20486;-70
2021/09/28 06:24:26;;;;;;;0.75;0.65;;;16.80;99.90;;;;;;5063295;28;20032;-71
2021/09/28 06:26:53;;;;;;;0.28;0.20;;;16.80;99.90;;;;;;5056533;28;20019;-71
2021/09/28 06:29:18;;;;;;;0.20;0.20;;;16.80;99.90;;;;;;5053081;28;20063;-71
2021/09/28 06:31:44;;;;;;;0.20;0.20;;;16.80;99.90;;;;;;5055588;28;20052;-71
2021/09/28 06:34:11;;;;;;;0.43;0.40;;;16.90;99.90;;;;;;5059548;28;20053;-71
2021/09/28 06:36:37;;;;;;;0.32;0.32;;;16.90;99.90;;;;;;5059221;28;20033;-71
2021/09/28 06:39:03;;;;;;;2.60;1.30;;;17.00;99.90;;;;;;5049140;28;20028;-71
2021/09/28 06:41:29;;;;;;;0.10;0.10;;;17.00;99.90;;;;;;5060337;28;20116;-70
2021/09/28 06:43:55;;;;;;;0.00;0.00;;;17.00;99.90;;;;;;5063817;28;20123;-70
2021/09/28 06:46:21;;;;;;;0.10;0.10;;;17.00;99.90;;;;;;5060274;28;20120;-70
2021/09/28 06:48:47;;;;;;;0.30;0.30;;;17.00;99.90;;;;;;5062656;28;20111;-71
2021/09/28 06:51:22;;;;;;;4.18;0.45;;;17.00;99.90;;;;;;5064414;28;20025;-71
2021/09/28 06:53:49;;;;;;;2.40;1.02;;;17.10;99.90;;;;;;5058931;28;20032;-71
2021/09/28 06:56:16;;;;;;;0.30;0.30;;;17.10;99.90;;;;;;5062402;28;20027;-71
2021/09/28 06:58:42;;;;;;;0.70;0.65;;;17.10;99.90;;;;;;5059768;28;20055;-70
2021/09/28 07:01:07;;;;;;;0.17;0.17;;;17.10;99.90;;;;;;5056110;28;20399;-71
2021/09/28 07:03:34;;;;;;;0.10;0.10;;;17.10;99.90;;;;;;5055137;28;20064;-71
2021/09/28 07:06:01;;;;;;;0.75;0.52;;;17.10;99.90;;;;;;5056904;28;20467;-71
2021/09/28 07:08:27;;;;;;;0.08;0.08;;;17.10;99.90;;;;;;5057235;28;20530;-71
2021/09/28 07:10:52;;;;;;;0.13;0.13;;;17.10;99.90;;;;;;5055673;28;20020;-71
2021/09/28 07:13:17;;;;;;;0.03;0.03;;;17.10;99.90;;;;;;5059132;28;20029;-70
2021/09/28 07:15:43;;;;;;;2.25;1.13;;;17.00;99.90;;;;;;5064289;28;20440;-71
2021/09/28 07:18:08;;;;;;;4.45;0.52;;;17.00;99.90;;;;;;5058660;28;20047;-70
2021/09/28 07:20:36;;;;;;;0.88;0.73;;;17.00;99.90;;;;;;5055430;28;20040;-70
2021/09/28 07:23:01;;;;;;;8.77;0.50;;;17.00;99.90;;;;;;5055865;28;20407;-71
2021/09/28 07:25:27;;;;;;;0.20;0.20;;;17.00;99.90;;;;;;5064331;28;20021;-71
2021/09/28 07:27:57;;;;;;;0.10;0.10;;;17.00;99.90;;;;;;5061786;28;20037;-70
2021/09/28 07:30:23;;;;;;;0.37;0.37;;;17.00;99.90;;;;;;5064228;28;20033;-71
2021/09/28 07:32:48;;;;;;;0.50;0.50;;;17.00;99.90;;;;;;5059572;28;20443;-70
2021/09/28 07:35:15;;;;;;;0.20;0.20;;;17.00;99.90;;;;;;5047630;28;20102;-70
2021/09/28 07:37:40;;;;;;;0.45;0.08;;;17.00;99.90;;;;;;5060208;28;20032;-70
2021/09/28 07:40:06;;;;;;;1.17;0.73;;;17.10;99.90;;;;;;5059421;28;20013;-70
2021/09/28 07:42:32;;;;;;;0.28;0.28;;;17.00;99.90;;;;;;5054614;28;20076;-71
2021/09/28 07:44:59;;;;;;;0.00;0.00;;;17.00;99.90;;;;;;5056744;28;20438;-71
2021/09/28 07:47:25;;;;;;;0.25;0.22;;;17.00;99.90;;;;;;5059212;28;20517;-71
2021/09/28 07:49:51;;;;;;;0.47;0.30;;;17.00;99.90;;;;;;5063083;28;20063;-71
2021/09/28 07:52:17;;;;;;;2.13;0.90;;;17.00;99.90;;;;;;5059557;28;20069;-71
2021/09/28 07:54:42;;;;;;;2.65;0.55;;;17.00;99.90;;;;;;5052380;28;20032;-71
2021/09/28 07:57:11;;;;;;;0.25;0.25;;;17.00;99.90;;;;;;5058899;28;20107;-71
2021/09/28 07:59:38;;;;;;;0.25;0.25;;;17.00;99.90;;;;;;5061152;28;20072;-70
2021/09/28 08:02:04;;;;;;;0.25;0.25;;;17.00;99.90;;;;;;5054336;28;20617;-70
2021/09/28 08:04:30;;;;;;;0.20;0.10;;;17.00;99.90;;;;;;5054991;28;20693;-71
2021/09/28 08:06:55;;;;;;;0.10;0.10;;;16.90;99.90;;;;;;5056777;28;20062;-71
2021/09/28 08:09:21;;;;;;;0.03;0.03;;;17.00;99.90;;;;;;5057914;28;20104;-70
2021/09/28 08:11:47;;;;;;;0.22;0.22;;;16.90;99.90;;;;;;5050615;28;20083;-71
2021/09/28 08:14:13;;;;;;;0.08;0.08;;;17.00;99.90;;;;;;5053752;28;20032;-70
2021/09/28 08:16:38;;;;;;;0.52;0.52;;;17.00;99.90;;;;;;5052865;28;20115;-70
2021/09/28 08:19:04;;;;;;;0.43;0.43;;;17.00;99.90;;;;;;5059120;28;20134;-70
2021/09/28 08:21:30;;;;;;;0.10;0.10;;;17.10;99.90;;;;;;5064162;28;20043;-71
2021/09/28 08:23:56;;;;;;;0.65;0.50;;;17.10;99.90;;;;;;5052751;28;20075;-70
2021/09/28 08:29:09;;;;;;;0.10;0.10;;;17.10;99.90;;;;;;5058248;28;20029;-69
2021/09/28 08:31:42;;;;;;;0.47;0.43;;;17.20;99.90;;;;;;5055307;28;20032;-69
2021/09/28 08:34:09;;;;;;;2.05;0.60;;;17.20;99.90;;;;;;5059000;28;20510;-68
2021/09/28 08:36:36;;;;;;;0.05;0.05;;;17.20;99.90;;;;;;5054525;28;20028;-69
2021/09/28 08:39:04;;;;;;;0.32;0.32;;;17.20;99.90;;;;;;5056344;28;20377;-69
2021/09/28 08:41:30;;;;;;;0.60;0.35;;;17.20;99.90;;;;;;5052604;28;20031;-69
2021/09/28 08:43:55;;;;;;;2.53;1.05;;;17.20;99.90;;;;;;5053023;28;20016;-69
2021/09/28 08:46:21;;;;;;;0.22;0.22;;;17.30;99.90;;;;;;5052591;28;20052;-68
2021/09/28 08:48:48;;;;;;;3.78;1.90;;;17.30;99.90;;;;;;5069221;28;20020;-69
2021/09/28 08:51:14;;;;;;;0.28;0.25;;;17.30;99.90;;;;;;5052665;28;20029;-69
2021/09/28 08:53:41;;;;;;;12.57;0.77;;;17.40;99.90;;;;;;5050860;28;20036;-69
2021/09/28 08:56:09;;;;;;;1.40;0.50;;;17.40;99.90;;;;;;5052496;28;20028;-68
2021/09/28 08:58:54;;;;;;;0.00;0.00;;;17.40;99.90;;;;;;5058428;28;20071;-68
2021/09/28 09:01:20;;;;;;;3.10;0.32;;;17.40;99.90;;;;;;5057882;28;20115;-69
2021/09/28 09:03:46;;;;;;;0.00;0.00;;;17.40;99.90;;;;;;5062149;28;20120;-68
2021/09/28 09:06:11;;;;;;;1.52;0.47;;;17.50;99.90;;;;;;5062613;28;20025;-69
2021/09/28 09:08:38;;;;;;;0.20;0.20;;;17.40;99.90;;;;;;5066930;28;20410;-69
2021/09/28 09:11:09;;;;;;;0.10;0.10;;;17.40;99.90;;;;;;5057230;28;20025;-68
2021/09/28 09:13:49;;;;;;;;;;;17.40;99.90;;;;;;5065342;28;20123;-68
2021/09/28 09:16:16;;;;;;;0.00;0.00;;;17.50;99.90;;;;;;5065394;28;19908;-69
2021/09/28 09:18:44;;;;;;;0.30;0.30;;;17.40;99.90;;;;;;5069896;28;20393;-68
2021/09/28 09:21:10;;;;;;;0.20;0.20;;;17.40;99.90;;;;;;5066427;28;20025;-69
2021/09/28 09:23:38;;;;;;;0.10;0.10;;;17.40;99.90;;;;;;5066573;28;20085;-68
2021/09/28 09:26:27;;;;;;;0.38;0.38;;;17.30;99.90;;;;;;5065696;28;20519;-69
2021/09/28 09:28:58;;;;;;;0.55;0.38;;;17.20;99.90;;;;;;5055824;28;20017;-69
2021/09/28 09:31:34;;;;;;;0.25;0.20;;;17.20;99.90;;;;;;5063638;28;20104;-69
2021/09/28 09:34:10;;;;;;;1.65;0.63;;;17.20;99.90;;;;;;5060622;28;20028;-69
2021/09/28 09:36:37;;;;;;;0.08;0.08;;;17.10;99.90;;;;;;5063823;28;20031;-69
2021/09/28 09:39:05;;;;;;;0.40;0.40;;;17.10;99.90;;;;;;5061789;28;20024;-69
2021/09/28 09:41:32;;;;;;;0.32;0.32;;;17.10;99.90;;;;;;5061962;28;20135;-69
2021/09/28 09:44:09;;;;;;;0.63;0.55;;;17.20;99.90;;;;;;5064970;28;20033;-69
2021/09/28 09:46:48;;;;;;;0.35;0.35;;;17.20;99.90;;;;;;5067352;28;20017;-69
2021/09/28 09:49:24;;;;;;;0.15;0.15;;;17.40;99.90;;;;;;5064022;28;20494;-69
2021/09/28 09:51:52;;;;;;;3.28;0.20;;;17.50;99.90;;;;;;5057442;28;20047;-69
2021/09/28 09:54:30;;;;;;;0.30;0.30;;;17.50;99.90;;;;;;5055966;28;20087;-69
2021/09/28 09:56:55;;;;;;;0.40;0.40;;;17.50;99.90;;;;;;5052823;28;20029;-70
2021/09/28 09:59:22;;;;;;;0.35;0.25;;;17.50;99.90;;;;;;5062965;28;20408;-69
2021/09/28 10:01:49;;;;;;;0.43;0.43;;;17.50;99.90;;;;;;5060642;28;20048;-70
2021/09/28 10:04:20;;;;;;;9.70;1.52;;;17.40;99.90;;;;;;5059762;28;20032;-69
2021/09/28 10:06:46;;;;;;;5.07;1.75;;;17.40;99.90;;;;;;5073231;28;20024;-69
2021/09/28 10:09:17;;;;;;;0.50;0.50;;;17.50;99.90;;;;;;5058986;28;20112;-69
2021/09/28 10:11:43;;;;;;;0.22;0.22;;;17.60;99.90;;;;;;5059498;28;20039;-68
2021/09/28 10:14:31;;;;;;;0.65;0.63;;;17.60;99.90;;;;;;5060237;28;20068;-69
2021/09/28 10:16:59;;;;;;;0.20;0.20;;;17.60;99.90;;;;;;5062219;28;20682;-69
2021/09/28 10:19:28;;;;;;;0.90;0.43;;;17.70;99.90;;;;;;5062217;28;20051;-68
2021/09/28 10:21:58;;;;;;;0.28;0.25;;;17.80;99.90;;;;;;5064960;28;20031;-70
2021/09/28 10:24:25;;;;;;;0.75;0.68;;;17.90;99.90;;;;;;5065730;28;20024;-69
2021/09/28 10:27:22;;;;;;;1.60;0.88;;;17.90;99.90;;;;;;5066652;28;20040;-69
2021/09/28 10:29:51;;;;;;;0.80;0.38;;;18.00;99.90;;;;;;5060032;28;20499;-69
2021/09/28 10:32:24;;;;;;;0.63;0.28;;;18.00;99.90;;;;;;5065642;28;20029;-69
2021/09/28 10:35:02;;;;;;;0.52;0.52;;;18.10;99.90;;;;;;5062968;28;20036;-69
2021/09/28 10:37:49;;;;;;;0.30;0.10;;;18.20;99.90;;;;;;5045853;28;20533;-69
2021/09/28 10:40:15;;;;;;;0.30;0.30;;;18.20;99.90;;;;;;5063266;28;20438;-69
2021/09/28 10:42:58;;;;;;;0.63;0.63;;;18.20;99.90;;;;;;5062396;28;20029;-70
2021/09/28 10:45:33;;;;;;;0.60;0.60;;;18.30;99.90;;;;;;5043331;28;20024;-69
2021/09/28 10:48:18;;;;;;;0.17;0.17;;;18.30;99.90;;;;;;5062006;28;20060;-69
2021/09/28 10:50:45;;;;;;;1.15;0.25;;;18.30;99.90;;;;;;5065858;28;20039;-69
2021/09/28 10:53:20;;;;;;;0.10;0.10;;;18.30;99.90;;;;;;5063091;28;20024;-69
2021/09/28 10:56:11;;;;;;;1.75;0.95;;;18.30;99.90;;;;;;5064518;28;20437;-69
2021/09/28 10:59:02;;;;;;;0.43;0.38;;;18.30;99.90;;;;;;5054851;28;20430;-69
2021/09/28 11:01:29;;;;;;;0.20;0.20;;;18.20;99.90;;;;;;5063088;28;20441;-69
2021/09/28 11:03:59;;;;;;;1.00;0.30;;;18.20;99.90;;;;;;5063341;28;20094;-69
2021/09/28 11:06:44;;;;;;;0.10;0.10;;;18.30;99.90;;;;;;5067478;28;20035;-69
2021/09/28 11:09:12;;;;;;;0.70;0.52;;;18.40;99.90;;;;;;5059065;28;20025;-70
2021/09/28 11:11:39;;;;;;;1.30;0.47;;;18.40;99.90;;;;;;5055024;28;20024;-69
2021/09/28 11:14:07;;;;;;;2.67;1.25;;;18.40;99.90;;;;;;5063548;28;20027;-69
2021/09/28 11:16:44;;;;;;;0.60;0.57;;;18.40;99.90;;;;;;5062368;28;20170;-70
2021/09/28 11:19:10;;;;;;;0.20;0.20;;;18.40;99.90;;;;;;5063772;28;20032;-70
2021/09/28 11:21:41;;;;;;;0.15;0.15;;;18.40;99.90;;;;;;5062568;28;20051;-69
2021/09/28 11:24:07;;;;;;;0.65;0.65;;;18.30;99.90;;;;;;5056840;28;20021;-69
2021/09/28 11:26:37;;;;;;;0.13;0.13;;;18.30;99.90;;;;;;5060431;28;20033;-69
2021/09/28 11:29:04;;;;;;;5.18;0.80;;;18.30;99.90;;;;;;5063477;28;20031;-70
2021/09/28 11:31:35;;;;;;;0.10;0.10;;;18.40;99.90;;;;;;5064294;28;20494;-69
2021/09/28 11:34:01;;;;;;;1.15;0.75;;;18.40;99.90;;;;;;5050300;28;20037;-69
2021/09/28 11:36:32;;;;;;;0.77;0.55;;;18.50;99.90;;;;;;5057646;28;20035;-69
2021/09/28 11:38:58;;;;;;;0.90;0.43;;;18.50;99.90;;;;;;5063535;28;20223;-69
2021/09/28 11:41:23;;;;;;;6.60;0.90;;;18.70;99.90;;;;;;5061214;28;20020;-69
2021/09/28 11:43:54;;;;;;;1.10;1.00;;;18.70;99.90;;;;;;5053799;28;20059;-70
2021/09/28 11:46:22;;;;;;;0.73;0.45;;;18.70;99.90;;;;;;5054365;28;20039;-70
2021/09/28 11:49:02;;;;;;;0.35;0.35;;;18.70;99.90;;;;;;5065224;28;20035;-70
2021/09/28 11:51:30;;;;;;;0.13;0.13;;;18.80;99.90;;;;;;5065124;28;20021;-69
2021/09/28 11:54:07;;;;;;;0.47;0.43;;;18.90;99.90;;;;;;5064865;28;20103;-70
2021/09/28 11:56:39;;;;;;;2.70;0.77;;;19.10;99.90;;;;;;5057197;28;20110;-69
2021/09/28 11:59:13;;;;;;;0.10;0.10;;;19.30;99.90;;;;;;5062545;28;20049;-69
2021/09/28 12:01:40;;;;;;;0.70;0.45;;;19.50;99.90;;;;;;5057199;28;20032;-69
2021/09/28 12:07:01;;;;;;;0.20;0.20;;;19.80;99.30;;;;;;5058425;28;20041;-68
2021/09/28 12:09:49;;;;;;;2.05;0.65;;;19.90;97.40;;;;;;5056691;28;20020;-69
2021/09/28 12:12:26;;;;;;;0.22;0.15;;;20.00;99.30;;;;;;5059960;28;20040;-70
2021/09/28 12:14:57;;;;;;;0.30;0.30;;;20.10;95.90;;;;;;5059695;28;20029;-69
2021/09/28 12:17:35;;;;;;;0.10;0.10;;;20.00;95.60;;;;;;5048242;28;20036;-69
2021/09/28 12:20:08;;;;;;;0.43;0.43;;;20.00;95.40;;;;;;5057755;28;20048;-69
2021/09/28 12:22:35;;;;;;;0.00;0.00;;;20.00;95.60;;;;;;5049307;28;20388;-69
2021/09/28 12:25:04;;;;;;;0.30;0.30;;;19.90;95.00;;;;;;5059086;28;20349;-72
2021/09/28 12:27:30;;;;;;;1.05;0.20;;;20.00;96.40;;;;;;5057810;28;20119;-72
2021/09/28 12:29:58;;;;;;;0.20;0.20;;;20.10;94.40;;;;;;5041916;28;20025;-69
2021/09/28 12:32:28;;;;;;;0.75;0.38;;;20.10;93.50;;;;;;5051351;28;20032;-70
2021/09/28 12:35:04;;;;;;;0.38;0.38;;;20.10;93.50;;;;;;5052340;28;20107;-70
2021/09/28 12:37:30;;;;;;;1.45;0.22;;;19.90;93.30;;;;;;5051248;28;20044;-69
2021/09/28 12:40:10;;;;;;;0.68;0.68;;;19.90;93.90;;;;;;5054401;28;20024;-70
2021/09/28 12:42:38;;;;;;;1.02;0.60;;;19.80;94.90;;;;;;5063087;28;20120;-69
2021/09/28 12:45:09;;;;;;;0.13;0.13;;;19.70;94.60;;;;;;5061200;28;20036;-69
2021/09/28 12:47:37;;;;;;;1.02;0.28;;;19.70;94.90;;;;;;5063057;28;20119;-69
2021/09/28 12:50:27;;;;;;;9.75;0.98;;;19.60;95.60;;;;;;5060126;28;20031;-70
2021/09/28 12:53:04;;;;;;;0.08;0.08;;;19.60;94.80;;;;;;5061412;28;20048;-69
2021/09/28 12:55:36;;;;;;;1.75;1.27;;;19.60;93.60;;;;;;5059651;28;20150;-69
2021/09/28 12:58:02;;;;;;;0.10;0.10;;;19.60;95.10;;;;;;5068222;28;20040;-69